sensor_id;sensor_type;location;lat;lon;timestamp;P1;durP1;ratioP1;P2;durP2;ratioP2
11771;SDS011;12556;55.748;13.194;2023-04-03T00:01:35;2.93;;;1.30;;
11771;SDS011;12556;55.748;13.194;2023-04-03T00:04:03;3.17;;;1.60;;
11771;SDS011;12556;55.748;13.194;2023-04-03T00:06:30;2.93;;;1.30;;
11771;SDS011;12556;55.748;13.194;2023-04-03T00:08:58;4.17;;;1.60;;
11771;SDS011;12556;55.748;13.194;2023-04-03T00:11:25;1.80;;;1.33;;
11771;SDS011;12556;55.748;13.194;2023-04-03T00:13:53;1.43;;;1.33;;
11771;SDS011;12556;55.748;13.194;2023-04-03T00:16:20;2.87;;;1.53;;
11771;SDS011;12556;55.748;13.194;2023-04-03T00:18:47;3.40;;;1.70;;
11771;SDS011;12556;55.748;13.194;2023-04-03T00:21:14;2.20;;;1.60;;
11771;SDS011;12556;55.748;13.194;2023-04-03T00:23:41;2.27;;;1.53;;
11771;SDS011;12556;55.748;13.194;2023-04-03T00:26:08;3.40;;;1.60;;
11771;SDS011;12556;55.748;13.194;2023-04-03T00:28:35;3.17;;;1.43;;
11771;SDS011;12556;55.748;13.194;2023-04-03T00:31:03;3.80;;;1.80;;
11771;SDS011;12556;55.748;13.194;2023-04-03T00:33:30;3.77;;;1.87;;
11771;SDS011;12556;55.748;13.194;2023-04-03T00:35:57;6.03;;;1.70;;
11771;SDS011;12556;55.748;13.194;2023-04-03T00:38:24;3.63;;;1.70;;
11771;SDS011;12556;55.748;13.194;2023-04-03T00:40:51;6.57;;;2.07;;
11771;SDS011;12556;55.748;13.194;2023-04-03T00:43:18;5.23;;;1.70;;
11771;SDS011;12556;55.748;13.194;2023-04-03T00:45:47;3.13;;;1.60;;
11771;SDS011;12556;55.748;13.194;2023-04-03T00:48:18;3.73;;;2.07;;
11771;SDS011;12556;55.748;13.194;2023-04-03T00:50:47;3.27;;;2.00;;
11771;SDS011;12556;55.748;13.194;2023-04-03T00:53:16;2.53;;;1.93;;
11771;SDS011;12556;55.748;13.194;2023-04-03T00:55:48;3.63;;;1.37;;
11771;SDS011;12556;55.748;13.194;2023-04-03T00:58:16;1.83;;;1.43;;
11771;SDS011;12556;55.748;13.194;2023-04-03T01:00:46;4.70;;;1.70;;
11771;SDS011;12556;55.748;13.194;2023-04-03T01:03:20;2.27;;;1.70;;
11771;SDS011;12556;55.748;13.194;2023-04-03T01:05:47;5.20;;;1.63;;
11771;SDS011;12556;55.748;13.194;2023-04-03T01:08:13;1.70;;;1.43;;
11771;SDS011;12556;55.748;13.194;2023-04-03T01:10:41;2.33;;;1.27;;
11771;SDS011;12556;55.748;13.194;2023-04-03T01:13:17;3.60;;;1.50;;
11771;SDS011;12556;55.748;13.194;2023-04-03T01:15:46;3.37;;;1.30;;
11771;SDS011;12556;55.748;13.194;2023-04-03T01:18:14;3.70;;;1.83;;
11771;SDS011;12556;55.748;13.194;2023-04-03T01:24:11;3.83;;;2.97;;
11771;SDS011;12556;55.748;13.194;2023-04-03T01:26:47;2.07;;;1.20;;
11771;SDS011;12556;55.748;13.194;2023-04-03T01:29:15;3.27;;;1.53;;
11771;SDS011;12556;55.748;13.194;2023-04-03T01:31:54;3.60;;;1.40;;
11771;SDS011;12556;55.748;13.194;2023-04-03T01:34:22;2.63;;;1.50;;
11771;SDS011;12556;55.748;13.194;2023-04-03T01:36:49;2.73;;;1.57;;
11771;SDS011;12556;55.748;13.194;2023-04-03T01:39:17;1.80;;;1.50;;
11771;SDS011;12556;55.748;13.194;2023-04-03T01:41:44;4.50;;;1.60;;
11771;SDS011;12556;55.748;13.194;2023-04-03T01:44:11;2.73;;;1.60;;
11771;SDS011;12556;55.748;13.194;2023-04-03T01:46:39;2.20;;;1.57;;
11771;SDS011;12556;55.748;13.194;2023-04-03T01:49:09;1.60;;;1.50;;
11771;SDS011;12556;55.748;13.194;2023-04-03T01:51:36;3.57;;;2.00;;
11771;SDS011;12556;55.748;13.194;2023-04-03T01:54:03;2.47;;;1.57;;
11771;SDS011;12556;55.748;13.194;2023-04-03T01:56:30;2.93;;;1.50;;
11771;SDS011;12556;55.748;13.194;2023-04-03T01:58:57;4.30;;;1.50;;
11771;SDS011;12556;55.748;13.194;2023-04-03T02:01:24;1.83;;;1.67;;
11771;SDS011;12556;55.748;13.194;2023-04-03T02:03:51;2.37;;;1.30;;
11771;SDS011;12556;55.748;13.194;2023-04-03T02:06:20;2.87;;;1.50;;
11771;SDS011;12556;55.748;13.194;2023-04-03T02:08:46;2.87;;;1.80;;
11771;SDS011;12556;55.748;13.194;2023-04-03T02:11:13;3.13;;;1.60;;
11771;SDS011;12556;55.748;13.194;2023-04-03T02:13:41;2.03;;;1.43;;
11771;SDS011;12556;55.748;13.194;2023-04-03T02:16:08;2.87;;;1.83;;
11771;SDS011;12556;55.748;13.194;2023-04-03T02:18:36;3.40;;;1.70;;
11771;SDS011;12556;55.748;13.194;2023-04-03T02:21:03;2.33;;;1.70;;
11771;SDS011;12556;55.748;13.194;2023-04-03T02:23:32;1.57;;;1.47;;
11771;SDS011;12556;55.748;13.194;2023-04-03T02:26:04;2.23;;;1.70;;
11771;SDS011;12556;55.748;13.194;2023-04-03T02:28:32;4.80;;;1.83;;
11771;SDS011;12556;55.748;13.194;2023-04-03T02:31:00;3.70;;;1.90;;
11771;SDS011;12556;55.748;13.194;2023-04-03T02:33:28;1.57;;;1.47;;
11771;SDS011;12556;55.748;13.194;2023-04-03T02:35:55;2.77;;;1.90;;
11771;SDS011;12556;55.748;13.194;2023-04-03T02:38:22;5.17;;;2.10;;
11771;SDS011;12556;55.748;13.194;2023-04-03T02:40:51;4.57;;;1.70;;
11771;SDS011;12556;55.748;13.194;2023-04-03T02:43:18;2.83;;;1.70;;
11771;SDS011;12556;55.748;13.194;2023-04-03T02:45:45;4.70;;;1.63;;
11771;SDS011;12556;55.748;13.194;2023-04-03T02:48:12;3.03;;;1.77;;
11771;SDS011;12556;55.748;13.194;2023-04-03T02:50:41;5.53;;;2.13;;
11771;SDS011;12556;55.748;13.194;2023-04-03T02:53:08;4.07;;;1.90;;
11771;SDS011;12556;55.748;13.194;2023-04-03T02:55:35;3.80;;;2.20;;
11771;SDS011;12556;55.748;13.194;2023-04-03T02:58:03;1.90;;;1.60;;
11771;SDS011;12556;55.748;13.194;2023-04-03T03:00:30;4.10;;;1.97;;
11771;SDS011;12556;55.748;13.194;2023-04-03T03:02:57;3.20;;;1.90;;
11771;SDS011;12556;55.748;13.194;2023-04-03T03:05:24;3.47;;;1.70;;
11771;SDS011;12556;55.748;13.194;2023-04-03T03:07:51;7.23;;;1.90;;
11771;SDS011;12556;55.748;13.194;2023-04-03T03:10:18;3.83;;;1.53;;
11771;SDS011;12556;55.748;13.194;2023-04-03T03:12:45;2.00;;;1.80;;
11771;SDS011;12556;55.748;13.194;2023-04-03T03:15:13;3.07;;;1.67;;
11771;SDS011;12556;55.748;13.194;2023-04-03T03:17:40;4.43;;;2.37;;
11771;SDS011;12556;55.748;13.194;2023-04-03T03:20:08;4.60;;;1.97;;
11771;SDS011;12556;55.748;13.194;2023-04-03T03:22:35;1.50;;;1.30;;
11771;SDS011;12556;55.748;13.194;2023-04-03T03:25:02;5.67;;;1.97;;
11771;SDS011;12556;55.748;13.194;2023-04-03T03:27:29;1.83;;;1.57;;
11771;SDS011;12556;55.748;13.194;2023-04-03T03:29:56;2.13;;;1.37;;
11771;SDS011;12556;55.748;13.194;2023-04-03T03:32:25;1.87;;;1.70;;
11771;SDS011;12556;55.748;13.194;2023-04-03T03:34:51;5.47;;;2.20;;
11771;SDS011;12556;55.748;13.194;2023-04-03T03:37:18;3.77;;;1.57;;
11771;SDS011;12556;55.748;13.194;2023-04-03T03:39:45;6.63;;;1.53;;
11771;SDS011;12556;55.748;13.194;2023-04-03T03:42:12;2.63;;;1.80;;
11771;SDS011;12556;55.748;13.194;2023-04-03T03:44:39;2.43;;;1.50;;
11771;SDS011;12556;55.748;13.194;2023-04-03T03:47:06;2.00;;;1.30;;
11771;SDS011;12556;55.748;13.194;2023-04-03T03:49:37;2.00;;;1.47;;
11771;SDS011;12556;55.748;13.194;2023-04-03T03:52:04;2.87;;;1.30;;
11771;SDS011;12556;55.748;13.194;2023-04-03T03:54:30;3.07;;;1.47;;
11771;SDS011;12556;55.748;13.194;2023-04-03T03:56:57;1.93;;;1.50;;
11771;SDS011;12556;55.748;13.194;2023-04-03T03:59:24;3.07;;;1.60;;
11771;SDS011;12556;55.748;13.194;2023-04-03T04:01:51;3.43;;;1.60;;
11771;SDS011;12556;55.748;13.194;2023-04-03T04:04:18;2.53;;;1.77;;
11771;SDS011;12556;55.748;13.194;2023-04-03T04:06:46;3.30;;;1.53;;
11771;SDS011;12556;55.748;13.194;2023-04-03T04:09:13;1.47;;;1.37;;
11771;SDS011;12556;55.748;13.194;2023-04-03T04:11:40;1.47;;;1.37;;
11771;SDS011;12556;55.748;13.194;2023-04-03T04:14:07;2.10;;;1.30;;
11771;SDS011;12556;55.748;13.194;2023-04-03T04:16:35;1.97;;;1.60;;
11771;SDS011;12556;55.748;13.194;2023-04-03T04:19:02;1.93;;;1.30;;
11771;SDS011;12556;55.748;13.194;2023-04-03T04:21:29;4.53;;;1.77;;
11771;SDS011;12556;55.748;13.194;2023-04-03T04:23:57;2.63;;;1.47;;
11771;SDS011;12556;55.748;13.194;2023-04-03T04:26:24;2.70;;;1.70;;
11771;SDS011;12556;55.748;13.194;2023-04-03T04:28:51;3.87;;;1.93;;
11771;SDS011;12556;55.748;13.194;2023-04-03T04:31:18;3.53;;;1.60;;
11771;SDS011;12556;55.748;13.194;2023-04-03T04:33:45;6.00;;;1.50;;
11771;SDS011;12556;55.748;13.194;2023-04-03T04:36:11;2.80;;;1.87;;
11771;SDS011;12556;55.748;13.194;2023-04-03T04:38:39;2.57;;;1.50;;
11771;SDS011;12556;55.748;13.194;2023-04-03T04:41:08;1.30;;;1.20;;
11771;SDS011;12556;55.748;13.194;2023-04-03T04:43:35;5.40;;;1.60;;
11771;SDS011;12556;55.748;13.194;2023-04-03T04:46:02;5.07;;;1.47;;
11771;SDS011;12556;55.748;13.194;2023-04-03T04:48:30;3.10;;;1.57;;
11771;SDS011;12556;55.748;13.194;2023-04-03T04:50:57;1.67;;;1.50;;
11771;SDS011;12556;55.748;13.194;2023-04-03T04:53:24;2.47;;;1.47;;
11771;SDS011;12556;55.748;13.194;2023-04-03T04:55:51;2.73;;;1.43;;
11771;SDS011;12556;55.748;13.194;2023-04-03T04:58:19;1.90;;;1.37;;
11771;SDS011;12556;55.748;13.194;2023-04-03T05:00:47;3.47;;;1.97;;
11771;SDS011;12556;55.748;13.194;2023-04-03T05:03:14;2.40;;;1.70;;
11771;SDS011;12556;55.748;13.194;2023-04-03T05:05:41;6.03;;;1.80;;
11771;SDS011;12556;55.748;13.194;2023-04-03T05:08:07;1.47;;;1.37;;
11771;SDS011;12556;55.748;13.194;2023-04-03T05:10:35;2.83;;;1.70;;
11771;SDS011;12556;55.748;13.194;2023-04-03T05:13:01;2.20;;;1.67;;
11771;SDS011;12556;55.748;13.194;2023-04-03T05:15:30;4.47;;;1.47;;
11771;SDS011;12556;55.748;13.194;2023-04-03T05:17:57;2.33;;;2.13;;
11771;SDS011;12556;55.748;13.194;2023-04-03T05:20:23;4.90;;;1.60;;
11771;SDS011;12556;55.748;13.194;2023-04-03T05:22:50;3.07;;;1.77;;
11771;SDS011;12556;55.748;13.194;2023-04-03T05:25:17;4.50;;;1.83;;
11771;SDS011;12556;55.748;13.194;2023-04-03T05:27:44;4.57;;;1.60;;
11771;SDS011;12556;55.748;13.194;2023-04-03T05:30:12;4.47;;;1.73;;
11771;SDS011;12556;55.748;13.194;2023-04-03T05:32:41;3.07;;;1.87;;
11771;SDS011;12556;55.748;13.194;2023-04-03T05:35:08;2.13;;;1.70;;
11771;SDS011;12556;55.748;13.194;2023-04-03T05:37:36;3.97;;;1.50;;
11771;SDS011;12556;55.748;13.194;2023-04-03T05:40:03;6.67;;;2.50;;
11771;SDS011;12556;55.748;13.194;2023-04-03T05:42:31;2.40;;;1.67;;
11771;SDS011;12556;55.748;13.194;2023-04-03T05:44:58;1.80;;;1.40;;
11771;SDS011;12556;55.748;13.194;2023-04-03T05:47:25;1.50;;;1.40;;
11771;SDS011;12556;55.748;13.194;2023-04-03T05:49:53;5.40;;;1.40;;
11771;SDS011;12556;55.748;13.194;2023-04-03T05:52:21;1.30;;;1.20;;
11771;SDS011;12556;55.748;13.194;2023-04-03T05:54:52;5.20;;;1.73;;
11771;SDS011;12556;55.748;13.194;2023-04-03T05:57:19;4.60;;;1.20;;
11771;SDS011;12556;55.748;13.194;2023-04-03T05:59:46;1.83;;;1.27;;
11771;SDS011;12556;55.748;13.194;2023-04-03T06:02:14;5.53;;;1.87;;
11771;SDS011;12556;55.748;13.194;2023-04-03T06:04:42;4.03;;;1.80;;
11771;SDS011;12556;55.748;13.194;2023-04-03T06:07:11;3.67;;;1.77;;
11771;SDS011;12556;55.748;13.194;2023-04-03T06:09:41;2.83;;;1.70;;
11771;SDS011;12556;55.748;13.194;2023-04-03T06:12:09;9.63;;;2.03;;
11771;SDS011;12556;55.748;13.194;2023-04-03T06:14:36;2.30;;;1.83;;
11771;SDS011;12556;55.748;13.194;2023-04-03T06:17:03;4.73;;;2.30;;
11771;SDS011;12556;55.748;13.194;2023-04-03T06:19:31;6.27;;;2.30;;
11771;SDS011;12556;55.748;13.194;2023-04-03T06:21:58;7.20;;;1.80;;
11771;SDS011;12556;55.748;13.194;2023-04-03T06:24:26;5.07;;;1.70;;
11771;SDS011;12556;55.748;13.194;2023-04-03T06:26:53;2.80;;;2.00;;
11771;SDS011;12556;55.748;13.194;2023-04-03T06:29:20;2.27;;;1.80;;
11771;SDS011;12556;55.748;13.194;2023-04-03T06:31:47;2.37;;;1.83;;
11771;SDS011;12556;55.748;13.194;2023-04-03T06:34:15;2.23;;;1.97;;
11771;SDS011;12556;55.748;13.194;2023-04-03T06:36:43;5.37;;;1.97;;
11771;SDS011;12556;55.748;13.194;2023-04-03T06:39:11;5.00;;;1.80;;
11771;SDS011;12556;55.748;13.194;2023-04-03T06:41:42;2.73;;;2.07;;
11771;SDS011;12556;55.748;13.194;2023-04-03T06:44:08;4.17;;;1.50;;
11771;SDS011;12556;55.748;13.194;2023-04-03T06:46:36;2.90;;;1.53;;
11771;SDS011;12556;55.748;13.194;2023-04-03T06:49:04;6.80;;;1.73;;
11771;SDS011;12556;55.748;13.194;2023-04-03T06:51:32;7.33;;;2.77;;
11771;SDS011;12556;55.748;13.194;2023-04-03T06:53:59;2.90;;;2.33;;
11771;SDS011;12556;55.748;13.194;2023-04-03T06:56:27;5.47;;;3.27;;
11771;SDS011;12556;55.748;13.194;2023-04-03T06:58:56;8.73;;;2.97;;
11771;SDS011;12556;55.748;13.194;2023-04-03T07:01:24;4.87;;;2.60;;
11771;SDS011;12556;55.748;13.194;2023-04-03T07:03:52;3.07;;;2.17;;
11771;SDS011;12556;55.748;13.194;2023-04-03T07:06:20;3.90;;;2.40;;
11771;SDS011;12556;55.748;13.194;2023-04-03T07:08:47;3.13;;;1.63;;
11771;SDS011;12556;55.748;13.194;2023-04-03T07:11:14;2.30;;;1.50;;
11771;SDS011;12556;55.748;13.194;2023-04-03T07:13:41;3.13;;;2.00;;
11771;SDS011;12556;55.748;13.194;2023-04-03T07:16:10;2.30;;;1.50;;
11771;SDS011;12556;55.748;13.194;2023-04-03T07:18:37;4.40;;;1.97;;
11771;SDS011;12556;55.748;13.194;2023-04-03T07:21:04;2.80;;;1.30;;
11771;SDS011;12556;55.748;13.194;2023-04-03T07:23:31;2.03;;;1.60;;
11771;SDS011;12556;55.748;13.194;2023-04-03T07:25:58;4.03;;;1.60;;
11771;SDS011;12556;55.748;13.194;2023-04-03T07:28:26;1.80;;;1.20;;
11771;SDS011;12556;55.748;13.194;2023-04-03T07:30:54;3.47;;;1.43;;
11771;SDS011;12556;55.748;13.194;2023-04-03T07:33:27;5.83;;;1.73;;
11771;SDS011;12556;55.748;13.194;2023-04-03T07:35:54;4.10;;;1.47;;
11771;SDS011;12556;55.748;13.194;2023-04-03T07:38:20;3.87;;;1.70;;
11771;SDS011;12556;55.748;13.194;2023-04-03T07:40:48;3.00;;;1.40;;
11771;SDS011;12556;55.748;13.194;2023-04-03T07:43:16;3.07;;;1.37;;
11771;SDS011;12556;55.748;13.194;2023-04-03T07:45:45;4.60;;;1.47;;
11771;SDS011;12556;55.748;13.194;2023-04-03T07:48:15;3.03;;;1.70;;
11771;SDS011;12556;55.748;13.194;2023-04-03T07:50:44;3.63;;;1.50;;
11771;SDS011;12556;55.748;13.194;2023-04-03T07:53:11;3.00;;;1.20;;
11771;SDS011;12556;55.748;13.194;2023-04-03T07:55:39;4.60;;;1.47;;
11771;SDS011;12556;55.748;13.194;2023-04-03T07:58:08;2.60;;;1.20;;
11771;SDS011;12556;55.748;13.194;2023-04-03T08:00:37;1.53;;;1.20;;
11771;SDS011;12556;55.748;13.194;2023-04-03T08:03:04;5.77;;;1.90;;
11771;SDS011;12556;55.748;13.194;2023-04-03T08:05:34;2.23;;;1.13;;
11771;SDS011;12556;55.748;13.194;2023-04-03T08:08:04;4.67;;;1.47;;
11771;SDS011;12556;55.748;13.194;2023-04-03T08:10:32;4.10;;;1.27;;
11771;SDS011;12556;55.748;13.194;2023-04-03T08:12:59;2.50;;;1.10;;
11771;SDS011;12556;55.748;13.194;2023-04-03T08:15:26;1.37;;;1.00;;
11771;SDS011;12556;55.748;13.194;2023-04-03T08:17:54;2.10;;;1.10;;
11771;SDS011;12556;55.748;13.194;2023-04-03T08:20:21;2.90;;;1.20;;
11771;SDS011;12556;55.748;13.194;2023-04-03T08:22:48;3.57;;;1.10;;
11771;SDS011;12556;55.748;13.194;2023-04-03T08:25:16;2.60;;;1.10;;
11771;SDS011;12556;55.748;13.194;2023-04-03T08:27:43;3.13;;;1.20;;
11771;SDS011;12556;55.748;13.194;2023-04-03T08:30:11;2.67;;;1.10;;
11771;SDS011;12556;55.748;13.194;2023-04-03T08:32:38;1.60;;;1.10;;
11771;SDS011;12556;55.748;13.194;2023-04-03T08:35:07;2.13;;;1.03;;
11771;SDS011;12556;55.748;13.194;2023-04-03T08:37:34;2.30;;;1.50;;
11771;SDS011;12556;55.748;13.194;2023-04-03T08:40:02;1.63;;;1.10;;
11771;SDS011;12556;55.748;13.194;2023-04-03T08:42:34;2.07;;;1.20;;
11771;SDS011;12556;55.748;13.194;2023-04-03T08:45:09;4.43;;;1.53;;
11771;SDS011;12556;55.748;13.194;2023-04-03T08:47:40;1.03;;;0.90;;
11771;SDS011;12556;55.748;13.194;2023-04-03T08:50:12;1.53;;;0.93;;
11771;SDS011;12556;55.748;13.194;2023-04-03T08:52:44;2.93;;;1.10;;
11771;SDS011;12556;55.748;13.194;2023-04-03T08:55:20;6.67;;;0.97;;
11771;SDS011;12556;55.748;13.194;2023-04-03T08:57:53;3.20;;;1.03;;
11771;SDS011;12556;55.748;13.194;2023-04-03T09:00:27;2.33;;;0.73;;
11771;SDS011;12556;55.748;13.194;2023-04-03T09:02:57;0.77;;;0.70;;
11771;SDS011;12556;55.748;13.194;2023-04-03T09:05:28;2.60;;;0.90;;
11771;SDS011;12556;55.748;13.194;2023-04-03T09:08:05;1.63;;;0.80;;
11771;SDS011;12556;55.748;13.194;2023-04-03T09:10:37;1.20;;;0.80;;
11771;SDS011;12556;55.748;13.194;2023-04-03T09:13:08;1.93;;;0.80;;
11771;SDS011;12556;55.748;13.194;2023-04-03T09:15:45;3.67;;;1.10;;
11771;SDS011;12556;55.748;13.194;2023-04-03T09:18:13;2.23;;;0.97;;
11771;SDS011;12556;55.748;13.194;2023-04-03T09:20:46;3.30;;;1.07;;
11771;SDS011;12556;55.748;13.194;2023-04-03T09:23:22;1.87;;;0.90;;
11771;SDS011;12556;55.748;13.194;2023-04-03T09:25:53;3.20;;;1.00;;
11771;SDS011;12556;55.748;13.194;2023-04-03T09:28:25;2.40;;;1.27;;
11771;SDS011;12556;55.748;13.194;2023-04-03T09:30:52;2.03;;;0.80;;
11771;SDS011;12556;55.748;13.194;2023-04-03T09:33:19;3.00;;;0.70;;
11771;SDS011;12556;55.748;13.194;2023-04-03T09:35:47;3.40;;;1.00;;
11771;SDS011;12556;55.748;13.194;2023-04-03T09:38:17;1.60;;;1.00;;
11771;SDS011;12556;55.748;13.194;2023-04-03T09:40:47;2.33;;;0.90;;
11771;SDS011;12556;55.748;13.194;2023-04-03T09:43:20;2.77;;;0.90;;
11771;SDS011;12556;55.748;13.194;2023-04-03T09:45:51;2.10;;;0.87;;
11771;SDS011;12556;55.748;13.194;2023-04-03T09:48:19;1.37;;;0.90;;
11771;SDS011;12556;55.748;13.194;2023-04-03T09:50:55;1.10;;;0.70;;
11771;SDS011;12556;55.748;13.194;2023-04-03T09:53:34;1.10;;;0.90;;
11771;SDS011;12556;55.748;13.194;2023-04-03T09:56:03;3.33;;;1.00;;
11771;SDS011;12556;55.748;13.194;2023-04-03T09:58:45;1.33;;;0.80;;
11771;SDS011;12556;55.748;13.194;2023-04-03T10:01:22;2.07;;;0.80;;
11771;SDS011;12556;55.748;13.194;2023-04-03T10:04:02;2.47;;;1.10;;
11771;SDS011;12556;55.748;13.194;2023-04-03T10:06:33;2.30;;;0.80;;
11771;SDS011;12556;55.748;13.194;2023-04-03T10:09:02;1.33;;;0.90;;
11771;SDS011;12556;55.748;13.194;2023-04-03T10:11:31;2.00;;;0.90;;
11771;SDS011;12556;55.748;13.194;2023-04-03T10:13:58;1.40;;;0.90;;
11771;SDS011;12556;55.748;13.194;2023-04-03T10:16:29;4.57;;;1.10;;
11771;SDS011;12556;55.748;13.194;2023-04-03T10:19:05;5.13;;;1.57;;
11771;SDS011;12556;55.748;13.194;2023-04-03T10:21:45;2.67;;;1.13;;
11771;SDS011;12556;55.748;13.194;2023-04-03T10:24:18;1.97;;;1.07;;
11771;SDS011;12556;55.748;13.194;2023-04-03T10:26:51;3.67;;;1.00;;
11771;SDS011;12556;55.748;13.194;2023-04-03T10:29:33;1.03;;;0.83;;
11771;SDS011;12556;55.748;13.194;2023-04-03T10:35:10;2.20;;;1.00;;
11771;SDS011;12556;55.748;13.194;2023-04-03T10:37:48;1.97;;;1.00;;
11771;SDS011;12556;55.748;13.194;2023-04-03T10:40:24;2.90;;;1.10;;
11771;SDS011;12556;55.748;13.194;2023-04-03T10:43:00;1.53;;;1.37;;
11771;SDS011;12556;55.748;13.194;2023-04-03T10:45:35;1.57;;;1.07;;
11771;SDS011;12556;55.748;13.194;2023-04-03T10:48:31;3.50;;;1.07;;
11771;SDS011;12556;55.748;13.194;2023-04-03T10:51:09;2.03;;;0.80;;
11771;SDS011;12556;55.748;13.194;2023-04-03T10:53:43;3.57;;;1.03;;
11771;SDS011;12556;55.748;13.194;2023-04-03T10:56:18;1.47;;;0.87;;
11771;SDS011;12556;55.748;13.194;2023-04-03T10:58:49;2.67;;;1.00;;
11771;SDS011;12556;55.748;13.194;2023-04-03T11:01:23;2.60;;;1.07;;
11771;SDS011;12556;55.748;13.194;2023-04-03T11:03:58;1.23;;;0.90;;
11771;SDS011;12556;55.748;13.194;2023-04-03T11:06:30;2.33;;;1.10;;
11771;SDS011;12556;55.748;13.194;2023-04-03T11:09:02;1.17;;;1.03;;
11771;SDS011;12556;55.748;13.194;2023-04-03T11:11:37;2.60;;;0.90;;
11771;SDS011;12556;55.748;13.194;2023-04-03T11:14:09;2.23;;;1.30;;
11771;SDS011;12556;55.748;13.194;2023-04-03T11:16:41;4.63;;;1.03;;
11771;SDS011;12556;55.748;13.194;2023-04-03T11:19:15;2.57;;;1.20;;
11771;SDS011;12556;55.748;13.194;2023-04-03T11:21:50;0.93;;;0.90;;
11771;SDS011;12556;55.748;13.194;2023-04-03T11:24:20;2.23;;;0.97;;
11771;SDS011;12556;55.748;13.194;2023-04-03T11:26:51;1.30;;;0.80;;
11771;SDS011;12556;55.748;13.194;2023-04-03T11:29:22;2.77;;;1.10;;
11771;SDS011;12556;55.748;13.194;2023-04-03T11:32:01;2.10;;;1.00;;
11771;SDS011;12556;55.748;13.194;2023-04-03T11:34:41;0.70;;;0.70;;
11771;SDS011;12556;55.748;13.194;2023-04-03T11:37:15;1.77;;;0.80;;
11771;SDS011;12556;55.748;13.194;2023-04-03T11:39:50;1.30;;;0.90;;
11771;SDS011;12556;55.748;13.194;2023-04-03T11:42:26;3.97;;;1.10;;
11771;SDS011;12556;55.748;13.194;2023-04-03T11:48:05;4.20;;;0.93;;
11771;SDS011;12556;55.748;13.194;2023-04-03T11:50:55;1.50;;;0.80;;
11771;SDS011;12556;55.748;13.194;2023-04-03T11:53:26;1.20;;;0.70;;
11771;SDS011;12556;55.748;13.194;2023-04-03T11:55:57;1.13;;;1.00;;
11771;SDS011;12556;55.748;13.194;2023-04-03T11:58:26;1.73;;;0.90;;
11771;SDS011;12556;55.748;13.194;2023-04-03T12:00:55;2.20;;;0.90;;
11771;SDS011;12556;55.748;13.194;2023-04-03T12:12:41;1.55;;;0.90;;
11771;SDS011;12556;55.748;13.194;2023-04-03T12:21:17;1.88;;;0.98;;
11771;SDS011;12556;55.748;13.194;2023-04-03T12:23:56;1.10;;;0.63;;
11771;SDS011;12556;55.748;13.194;2023-04-03T12:26:32;1.67;;;0.90;;
11771;SDS011;12556;55.748;13.194;2023-04-03T12:29:02;1.67;;;0.80;;
11771;SDS011;12556;55.748;13.194;2023-04-03T12:31:42;2.00;;;0.95;;
11771;SDS011;12556;55.748;13.194;2023-04-03T12:34:24;1.57;;;0.83;;
11771;SDS011;12556;55.748;13.194;2023-04-03T12:37:06;1.73;;;0.90;;
11771;SDS011;12556;55.748;13.194;2023-04-03T12:39:52;3.53;;;1.20;;
11771;SDS011;12556;55.748;13.194;2023-04-03T12:45:29;0.80;;;0.75;;
11771;SDS011;12556;55.748;13.194;2023-04-03T12:48:08;3.97;;;1.02;;
11771;SDS011;12556;55.748;13.194;2023-04-03T12:50:40;2.95;;;0.90;;
11771;SDS011;12556;55.748;13.194;2023-04-03T12:53:11;1.90;;;1.08;;
11771;SDS011;12556;55.748;13.194;2023-04-03T12:55:42;1.85;;;0.85;;
11771;SDS011;12556;55.748;13.194;2023-04-03T12:58:20;0.85;;;0.80;;
11771;SDS011;12556;55.748;13.194;2023-04-03T13:00:58;2.40;;;0.77;;
11771;SDS011;12556;55.748;13.194;2023-04-03T13:03:27;0.50;;;0.50;;
11771;SDS011;12556;55.748;13.194;2023-04-03T13:05:54;2.22;;;1.10;;
11771;SDS011;12556;55.748;13.194;2023-04-03T13:08:26;1.52;;;0.85;;
11771;SDS011;12556;55.748;13.194;2023-04-03T13:10:55;2.65;;;0.90;;
11771;SDS011;12556;55.748;13.194;2023-04-03T13:13:26;1.75;;;0.77;;
11771;SDS011;12556;55.748;13.194;2023-04-03T13:15:53;2.40;;;0.90;;
11771;SDS011;12556;55.748;13.194;2023-04-03T13:18:21;3.28;;;1.20;;
11771;SDS011;12556;55.748;13.194;2023-04-03T13:20:53;1.15;;;0.98;;
11771;SDS011;12556;55.748;13.194;2023-04-03T13:23:22;3.95;;;1.00;;
11771;SDS011;12556;55.748;13.194;2023-04-03T13:25:50;0.80;;;0.77;;
11771;SDS011;12556;55.748;13.194;2023-04-03T13:28:18;2.40;;;0.95;;
11771;SDS011;12556;55.748;13.194;2023-04-03T13:30:56;2.22;;;1.00;;
11771;SDS011;12556;55.748;13.194;2023-04-03T13:33:28;1.40;;;1.05;;
11771;SDS011;12556;55.748;13.194;2023-04-03T13:36:00;2.00;;;1.10;;
11771;SDS011;12556;55.748;13.194;2023-04-03T13:38:30;2.20;;;0.98;;
11771;SDS011;12556;55.748;13.194;2023-04-03T13:40:59;1.20;;;0.68;;
11771;SDS011;12556;55.748;13.194;2023-04-03T13:43:28;1.03;;;0.87;;
11771;SDS011;12556;55.748;13.194;2023-04-03T13:46:00;0.93;;;0.63;;
11771;SDS011;12556;55.748;13.194;2023-04-03T13:48:37;3.97;;;1.30;;
11771;SDS011;12556;55.748;13.194;2023-04-03T13:51:12;0.95;;;0.70;;
11771;SDS011;12556;55.748;13.194;2023-04-03T13:53:46;1.30;;;0.88;;
11771;SDS011;12556;55.748;13.194;2023-04-03T13:56:19;1.77;;;0.90;;
11771;SDS011;12556;55.748;13.194;2023-04-03T13:58:58;1.60;;;0.97;;
11771;SDS011;12556;55.748;13.194;2023-04-03T14:01:39;1.17;;;0.90;;
11771;SDS011;12556;55.748;13.194;2023-04-03T14:04:13;1.87;;;1.10;;
11771;SDS011;12556;55.748;13.194;2023-04-03T14:06:42;1.70;;;0.90;;
11771;SDS011;12556;55.748;13.194;2023-04-03T14:09:09;1.67;;;1.27;;
11771;SDS011;12556;55.748;13.194;2023-04-03T14:11:37;1.67;;;1.17;;
11771;SDS011;12556;55.748;13.194;2023-04-03T14:14:06;2.30;;;0.90;;
11771;SDS011;12556;55.748;13.194;2023-04-03T14:16:40;4.27;;;1.20;;
11771;SDS011;12556;55.748;13.194;2023-04-03T14:19:10;3.80;;;1.00;;
11771;SDS011;12556;55.748;13.194;2023-04-03T14:21:44;1.53;;;0.90;;
11771;SDS011;12556;55.748;13.194;2023-04-03T14:24:11;1.40;;;1.00;;
11771;SDS011;12556;55.748;13.194;2023-04-03T14:26:38;1.30;;;1.00;;
11771;SDS011;12556;55.748;13.194;2023-04-03T14:29:06;1.60;;;0.93;;
11771;SDS011;12556;55.748;13.194;2023-04-03T14:31:33;3.63;;;1.27;;
11771;SDS011;12556;55.748;13.194;2023-04-03T14:34:01;2.03;;;0.93;;
11771;SDS011;12556;55.748;13.194;2023-04-03T14:36:29;1.93;;;0.90;;
11771;SDS011;12556;55.748;13.194;2023-04-03T14:38:56;2.50;;;1.13;;
11771;SDS011;12556;55.748;13.194;2023-04-03T14:41:25;1.87;;;0.90;;
11771;SDS011;12556;55.748;13.194;2023-04-03T14:43:52;1.53;;;0.90;;
11771;SDS011;12556;55.748;13.194;2023-04-03T14:46:21;1.30;;;0.97;;
11771;SDS011;12556;55.748;13.194;2023-04-03T14:48:50;1.50;;;1.17;;
11771;SDS011;12556;55.748;13.194;2023-04-03T14:51:18;2.47;;;0.90;;
11771;SDS011;12556;55.748;13.194;2023-04-03T14:53:45;1.57;;;0.90;;
11771;SDS011;12556;55.748;13.194;2023-04-03T14:56:12;2.27;;;1.00;;
11771;SDS011;12556;55.748;13.194;2023-04-03T14:58:40;3.00;;;1.00;;
11771;SDS011;12556;55.748;13.194;2023-04-03T15:01:09;2.53;;;1.03;;
11771;SDS011;12556;55.748;13.194;2023-04-03T15:03:37;2.40;;;1.40;;
11771;SDS011;12556;55.748;13.194;2023-04-03T15:06:04;1.13;;;0.90;;
11771;SDS011;12556;55.748;13.194;2023-04-03T15:08:32;1.57;;;0.90;;
11771;SDS011;12556;55.748;13.194;2023-04-03T15:10:59;1.40;;;0.80;;
11771;SDS011;12556;55.748;13.194;2023-04-03T15:13:27;3.03;;;0.97;;
11771;SDS011;12556;55.748;13.194;2023-04-03T15:15:53;1.10;;;0.80;;